Time;durP1;ratioP1;P1;durP2;ratioP2;P2;SDS_P1;SDS_P2;PMS_P1;PMS_P2;Temp;Humidity;BMP_temperature;BMP_pressure;BME280_temperature;BME280_humidity;BME280_pressure;Samples;Min_cycle;Max_cycle;Signal;HPM_P1;HPM_P2
2023/03/04 00:01:01;;;;;;;15.60;10.07;;;22.50;96.30;;;21.71;35.15;98756.19;5080362;28;20051;-72
2023/03/04 00:03:30;;;;;;;14.52;10.20;;;22.50;96.40;;;21.69;35.14;98747.44;5094835;28;20044;-72
2023/03/04 00:05:56;;;;;;;13.45;10.05;;;22.50;96.50;;;21.70;35.09;98749.03;5096856;28;20048;-72
2023/03/04 00:08:22;;;;;;;12.48;10.18;;;22.50;96.30;;;21.71;35.09;98745.16;5095232;28;20147;-72
2023/03/04 00:10:48;;;;;;;13.02;9.35;;;22.50;96.30;;;21.66;35.08;98737.91;5093739;28;20040;-72
2023/03/04 00:13:15;;;;;;;14.50;10.27;;;22.50;96.30;;;21.65;35.15;98736.31;5080630;28;20156;-72
2023/03/04 00:15:41;;;;;;;10.82;9.20;;;22.40;96.30;;;21.68;35.29;98734.81;5093977;28;20459;-72
2023/03/04 00:18:07;;;;;;;12.25;8.98;;;22.50;96.30;;;21.73;35.08;98737.34;5080232;28;20080;-72
2023/03/04 00:20:33;;;;;;;13.73;9.85;;;22.50;96.20;;;21.70;35.03;98724.19;5097827;28;20114;-72
2023/03/04 00:22:59;;;;;;;14.32;9.75;;;22.50;96.20;;;21.68;35.34;98724.56;5082132;28;20059;-72
2023/03/04 00:25:26;;;;;;;14.40;10.98;;;;;;;21.69;35.28;98717.09;5080352;28;20458;-71
2023/03/04 00:27:52;;;;;;;12.25;9.32;;;22.40;95.80;;;21.70;35.37;98707.63;5086372;28;20127;-72
2023/03/04 00:30:19;;;;;;;13.30;9.30;;;22.50;96.50;;;21.71;35.31;98703.75;5097790;28;20048;-72
2023/03/04 00:32:45;;;;;;;18.10;11.65;;;22.50;96.50;;;21.71;35.25;98700.97;5085612;28;20040;-73
2023/03/04 00:35:11;;;;;;;12.38;9.40;;;22.50;96.40;;;21.71;35.35;98703.75;5097377;28;20047;-71
2023/03/04 00:37:37;;;;;;;13.73;9.68;;;22.50;96.40;;;21.72;35.38;98696.25;5098411;28;20032;-71
2023/03/04 00:40:04;;;;;;;14.88;10.73;;;22.50;96.80;;;21.72;35.19;98687.97;5098515;28;20036;-73
2023/03/04 00:42:30;;;;;;;16.45;9.05;;;22.50;96.30;;;21.72;35.19;98694.28;5051517;28;20044;-73
2023/03/04 00:44:57;;;;;;;17.17;10.45;;;22.60;96.40;;;21.71;35.47;98700.19;5069303;28;20063;-73
2023/03/04 00:47:23;;;;;;;15.35;10.23;;;22.50;96.40;;;21.69;35.53;98689.47;5071007;28;20677;-73
2023/03/04 00:49:51;;;;;;;13.90;9.73;;;22.50;96.40;;;21.69;35.45;98689.47;5065030;28;20044;-73
2023/03/04 00:52:17;;;;;;;12.15;9.02;;;22.50;96.50;;;21.71;35.39;98684.41;5058797;28;20081;-74
2023/03/04 00:54:44;;;;;;;12.27;9.02;;;22.50;96.50;;;21.72;35.44;98674.97;5067728;28;20054;-73
2023/03/04 00:57:10;;;;;;;10.65;8.82;;;22.50;96.50;;;21.68;35.35;98663.84;5098691;28;20044;-73
2023/03/04 00:59:36;;;;;;;14.27;9.43;;;22.50;96.50;;;21.68;35.48;98666.59;5053751;28;20378;-73
2023/03/04 01:02:02;;;;;;;17.20;10.55;;;22.50;96.40;;;21.68;35.59;98652.00;5068975;28;20046;-74
2023/03/04 01:04:28;;;;;;;16.10;9.45;;;22.50;96.80;;;21.66;35.55;98644.06;5097718;28;20055;-74
2023/03/04 01:06:54;;;;;;;14.85;9.10;;;22.40;96.70;;;21.65;35.70;98636.94;5088125;28;20036;-73
2023/03/04 01:09:21;;;;;;;14.90;10.20;;;22.40;96.70;;;21.66;35.72;98638.53;5079069;28;20040;-73
2023/03/04 01:11:46;;;;;;;12.27;9.48;;;22.40;96.60;;;21.71;35.64;98634.72;5062843;28;20532;-73
2023/03/04 01:14:13;;;;;;;16.08;10.32;;;22.50;96.70;;;21.68;35.72;98636.22;5063958;28;20050;-73
2023/03/04 01:16:40;;;;;;;13.65;10.48;;;;;;;21.68;35.75;98629.91;5078715;28;20036;-72
2023/03/04 01:19:06;;;;;;;14.68;8.65;;;22.40;96.20;;;21.70;35.74;98619.31;5080657;28;20070;-72
2023/03/04 01:21:32;;;;;;;14.32;9.40;;;22.40;96.80;;;21.67;35.75;98614.50;5081038;28;20422;-73
2023/03/04 01:23:58;;;;;;;10.65;7.82;;;22.40;96.50;;;21.68;35.86;98618.88;5097710;28;20040;-73
2023/03/04 01:26:24;;;;;;;16.20;9.13;;;22.40;96.60;;;21.72;35.78;98605.16;5078741;28;20044;-73
2023/03/04 01:28:51;;;;;;;17.90;9.32;;;22.40;96.90;;;21.69;35.87;98603.91;5081195;28;20047;-73
2023/03/04 01:31:17;;;;;;;14.10;9.85;;;22.40;96.90;;;21.66;35.85;98599.91;5071101;28;20043;-73
2023/03/04 01:33:43;;;;;;;13.65;10.23;;;22.40;96.70;;;21.67;35.91;98600.69;5083314;28;20040;-73
2023/03/04 01:36:09;;;;;;;17.85;9.50;;;22.40;96.80;;;21.65;35.99;98600.22;5079236;28;20050;-73
2023/03/04 01:38:35;;;;;;;17.30;9.75;;;22.50;97.20;;;21.64;36.00;98601.41;5095729;28;20076;-73
2023/03/04 01:41:01;;;;;;;13.63;9.13;;;22.40;96.80;;;21.61;35.99;98597.38;5094582;28;20040;-73
2023/03/04 01:43:31;;;;;;;15.13;10.52;;;22.40;97.00;;;21.60;36.26;98597.72;5094784;28;20052;-73
2023/03/04 01:45:57;;;;;;;13.68;8.90;;;22.30;96.70;;;21.60;36.09;98595.78;5061212;28;20530;-73
2023/03/04 01:48:36;;;;;;;12.65;9.18;;;22.30;96.70;;;21.62;36.08;98582.41;5063095;28;20526;-73
2023/03/04 01:51:09;;;;;;;14.25;9.88;;;22.30;96.30;;;21.68;35.72;98583.00;5084119;28;20116;-73
2023/03/04 01:53:35;;;;;;;12.38;8.73;;;22.30;96.40;;;21.64;35.89;98576.56;5071066;28;20047;-73
2023/03/04 01:56:28;;;;;;;15.27;9.38;;;22.40;96.70;;;21.64;36.01;98579.31;5065881;28;20040;-74
2023/03/04 01:59:18;;;;;;;13.07;9.02;;;22.40;96.60;;;21.60;36.11;98578.41;5099211;28;20043;-73
2023/03/04 02:01:53;;;;;;;13.82;9.27;;;22.40;96.50;;;21.62;35.95;98576.09;5098001;28;20421;-73
2023/03/04 02:04:22;;;;;;;18.50;10.45;;;22.30;96.70;;;21.60;36.03;98568.19;5095921;28;20123;-73
2023/03/04 02:06:48;;;;;;;12.63;9.70;;;22.30;96.80;;;21.56;35.92;98572.00;5085657;28;20056;-73
2023/03/04 02:09:15;;;;;;;13.38;9.18;;;22.30;96.70;;;21.58;36.08;98564.19;5055438;28;20047;-73
2023/03/04 02:11:42;;;;;;;11.82;8.73;;;22.30;96.70;;;21.56;36.19;98572.00;5083060;28;20043;-74
2023/03/04 02:14:09;;;;;;;14.20;9.85;;;22.30;96.70;;;21.60;36.00;98572.88;5079561;28;20051;-73
2023/03/04 02:16:35;;;;;;;13.60;9.25;;;22.30;96.60;;;21.58;35.95;98561.41;5067152;28;20051;-74
2023/03/04 02:19:03;;;;;;;14.27;9.25;;;22.30;96.40;;;21.55;35.91;98567.63;5070717;28;20040;-73
2023/03/04 02:21:32;;;;;;;15.10;10.43;;;22.30;96.50;;;21.55;36.11;98564.88;5072922;28;20043;-72
2023/03/04 02:24:25;;;;;;;11.23;8.50;;;22.30;96.60;;;21.54;36.13;98568.78;5102812;28;20036;-73
2023/03/04 02:26:51;;;;;;;12.85;9.13;;;22.30;96.50;;;21.53;36.12;98567.19;5095146;28;20142;-73
2023/03/04 02:29:17;;;;;;;13.35;9.60;;;22.30;96.60;;;21.55;36.07;98565.69;5100893;28;20184;-73
2023/03/04 02:31:48;;;;;;;13.52;9.60;;;22.30;96.70;;;21.54;36.04;98566.03;5087427;28;20496;-73
2023/03/04 02:34:28;;;;;;;18.85;11.43;;;22.30;96.10;;;21.50;36.04;98551.31;5055585;28;20068;-73
2023/03/04 02:36:54;;;;;;;12.15;9.80;;;22.20;96.70;;;21.50;36.24;98549.38;5058472;28;20059;-73
2023/03/04 02:39:31;;;;;;;12.35;8.63;;;22.30;96.70;;;21.49;36.22;98545.00;5084270;28;20043;-73
2023/03/04 02:41:57;;;;;;;13.80;9.32;;;22.30;96.60;;;21.48;36.25;98542.63;5099687;28;20040;-73
2023/03/04 02:44:35;;;;;;;13.65;10.00;;;22.20;96.60;;;21.49;36.31;98535.94;5072353;28;20044;-73
2023/03/04 02:47:02;;;;;;;11.45;8.98;;;22.30;96.70;;;21.49;35.94;98533.16;5068461;28;20040;-74
2023/03/04 02:49:30;;;;;;;12.55;8.90;;;22.30;96.80;;;21.52;36.07;98522.22;5085803;28;20097;-73
2023/03/04 02:52:07;;;;;;;14.73;10.30;;;22.20;96.70;;;21.48;36.53;98509.50;5100663;28;20824;-74
2023/03/04 02:54:33;;;;;;;13.30;9.07;;;22.30;96.50;;;21.44;36.25;98510.19;5084807;28;20040;-73
2023/03/04 02:57:02;;;;;;;18.58;9.85;;;22.30;96.80;;;21.44;36.18;98507.44;5068607;28;20036;-74
2023/03/04 02:59:29;;;;;;;15.25;9.20;;;22.20;96.80;;;21.46;36.23;98510.63;5068804;28;20057;-73
2023/03/04 03:01:57;;;;;;;13.93;9.88;;;22.20;96.80;;;21.43;36.33;98508.59;5097391;28;20061;-73
2023/03/04 03:04:26;;;;;;;13.07;8.38;;;22.20;96.70;;;21.43;36.24;98508.59;5087292;28;20051;-73
2023/03/04 03:06:52;;;;;;;14.00;9.40;;;22.20;96.70;;;21.45;36.22;98508.25;5056092;28;20119;-73
2023/03/04 03:09:19;;;;;;;14.60;9.18;;;22.20;96.90;;;21.41;36.26;98504.56;5072467;28;20051;-74
2023/03/04 03:11:45;;;;;;;12.85;9.50;;;22.20;96.90;;;21.41;36.15;98497.09;5085218;28;20348;-73
2023/03/04 03:14:11;;;;;;;16.08;9.93;;;22.20;97.00;;;21.39;36.06;98493.09;5087490;28;20702;-73
2023/03/04 03:16:37;;;;;;;13.10;9.10;;;22.20;96.90;;;21.41;36.11;98488.81;5098985;28;20051;-74
2023/03/04 03:19:04;;;;;;;12.90;9.45;;;22.20;96.60;;;21.38;36.20;98489.53;5101934;28;20042;-74
2023/03/04 03:21:33;;;;;;;12.77;9.43;;;22.20;96.70;;;21.39;36.25;98495.84;5096364;28;20059;-73
2023/03/04 03:23:59;;;;;;;13.52;9.30;;;22.20;96.60;;;21.38;36.17;98495.06;5100549;28;20043;-73
2023/03/04 03:26:25;;;;;;;12.60;8.98;;;22.20;96.70;;;21.39;36.24;98484.81;5093940;28;20040;-73
2023/03/04 03:28:51;;;;;;;11.75;8.27;;;22.20;96.60;;;21.38;35.99;98485.94;5072674;28;20040;-73
2023/03/04 03:31:18;;;;;;;13.90;8.75;;;22.20;96.60;;;21.38;36.29;98483.19;5097061;28;20046;-74
2023/03/04 03:33:45;;;;;;;12.32;9.38;;;22.10;96.70;;;21.36;36.22;98488.25;5103357;28;20042;-73
2023/03/04 03:36:10;;;;;;;12.20;9.35;;;22.10;96.80;;;21.36;36.13;98493.78;5070153;28;20044;-74
2023/03/04 03:38:37;;;;;;;13.07;9.45;;;22.10;96.70;;;21.36;36.17;98493.78;5070445;28;20055;-73
2023/03/04 03:41:03;;;;;;;14.60;9.82;;;22.10;96.60;;;21.37;35.82;98489.84;5073272;28;20044;-73
2023/03/04 03:43:29;;;;;;;13.15;9.50;;;22.10;96.60;;;21.36;36.00;98489.06;5079566;28;20119;-73
2023/03/04 03:45:55;;;;;;;14.05;9.23;;;22.20;97.00;;;21.32;36.17;98490.94;5066949;28;20609;-73
2023/03/04 03:48:21;;;;;;;11.43;7.97;;;22.10;96.80;;;21.34;35.98;98491.34;5071958;28;20043;-73
2023/03/04 03:50:47;;;;;;;10.10;8.38;;;22.10;96.90;;;21.29;36.36;98486.09;5100729;28;20038;-73
2023/03/04 03:53:13;;;;;;;13.18;8.65;;;22.10;96.80;;;21.30;36.10;98481.41;5082621;28;20142;-73
2023/03/04 03:55:40;;;;;;;11.00;7.82;;;22.10;97.00;;;21.30;36.21;98484.94;5098959;28;20468;-72
2023/03/04 03:58:06;;;;;;;11.50;8.75;;;22.10;96.60;;;21.30;36.07;98481.41;5064544;28;20096;-73
2023/03/04 04:00:32;;;;;;;12.82;9.18;;;22.10;96.70;;;21.29;36.28;98475.06;5078896;28;20429;-73
2023/03/04 04:02:58;;;;;;;15.55;9.70;;;22.10;97.00;;;21.32;36.20;98481.81;5053214;28;20031;-73
2023/03/04 04:05:25;;;;;;;12.27;8.80;;;22.10;96.80;;;21.32;36.23;98477.13;5062893;28;20043;-73
2023/03/04 04:07:51;;;;;;;13.77;8.75;;;22.10;96.70;;;21.29;36.38;98480.56;5059450;28;20056;-74
2023/03/04 04:10:17;;;;;;;11.65;8.60;;;22.10;96.50;;;21.28;36.33;98478.97;5064882;28;20044;-73
2023/03/04 04:12:43;;;;;;;16.58;9.43;;;22.00;96.50;;;21.27;36.19;98477.38;5064878;28;20085;-73
2023/03/04 04:15:12;;;;;;;10.93;8.60;;;22.00;96.70;;;21.26;36.35;98475.75;5080162;28;20406;-73
2023/03/04 04:17:39;;;;;;;11.48;8.90;;;22.20;96.90;;;21.25;36.26;98474.19;5064740;28;20047;-73
2023/03/04 04:20:06;;;;;;;14.02;8.65;;;22.10;96.80;;;21.24;36.42;98472.56;5083494;28;20115;-73
2023/03/04 04:22:33;;;;;;;13.93;9.20;;;22.10;96.60;;;21.24;36.16;98478.91;5077742;28;20392;-73
2023/03/04 04:24:59;;;;;;;14.07;8.18;;;22.00;96.60;;;21.24;36.07;98475.31;5099684;28;20071;-72
2023/03/04 04:27:25;;;;;;;11.88;8.73;;;21.90;96.60;;;21.26;36.21;98473.00;5064633;28;20039;-73
2023/03/04 04:29:51;;;;;;;13.23;8.93;;;22.00;96.60;;;21.23;35.87;98470.97;5080632;28;20776;-73
2023/03/04 04:32:17;;;;;;;11.68;8.95;;;22.00;97.20;;;21.22;36.23;98470.16;5051491;28;20036;-73
2023/03/04 04:34:43;;;;;;;11.57;8.52;;;22.00;96.70;;;21.21;36.17;98467.75;5075529;28;20050;-73
2023/03/04 04:37:09;;;;;;;11.45;9.00;;;22.00;96.90;;;21.18;36.26;98473.97;5081814;28;20051;-73
2023/03/04 04:39:35;;;;;;;13.50;9.88;;;22.00;97.00;;;21.17;36.15;98472.38;5092753;28;20042;-72
2023/03/04 04:42:01;;;;;;;9.07;7.60;;;22.00;96.90;;;21.18;36.10;98465.69;5082699;28;20027;-72
2023/03/04 04:44:28;;;;;;;12.77;9.10;;;21.90;96.60;;;21.14;36.10;98473.88;5099257;28;20128;-72
2023/03/04 04:46:54;;;;;;;13.45;9.57;;;22.00;96.80;;;21.18;36.29;98465.69;5097643;28;20464;-73
2023/03/04 04:49:20;;;;;;;9.05;7.75;;;21.90;96.80;;;21.19;36.38;98464.53;5097247;28;20043;-73
2023/03/04 04:51:46;;;;;;;10.73;8.10;;;21.90;96.70;;;21.17;36.21;98458.59;5098105;28;20046;-73
2023/03/04 04:54:12;;;;;;;11.43;9.07;;;21.90;96.60;;;21.15;36.23;98455.38;5092496;28;20044;-73
2023/03/04 04:56:39;;;;;;;11.77;8.70;;;22.00;96.90;;;21.18;36.36;98454.66;5099131;28;20199;-74
2023/03/04 04:59:06;;;;;;;12.77;8.95;;;21.90;96.90;;;21.12;36.16;98454.13;5097382;28;20032;-73
2023/03/04 05:01:32;;;;;;;11.88;8.15;;;21.90;97.00;;;21.11;36.23;98443.44;5070788;28;20051;-73
2023/03/04 05:03:58;;;;;;;11.30;8.35;;;21.90;96.80;;;21.12;36.23;98453.31;5082222;28;20036;-73
2023/03/04 05:06:25;;;;;;;11.70;7.88;;;21.90;96.70;;;21.10;36.37;98455.63;5101236;28;20043;-73
2023/03/04 05:08:51;;;;;;;12.23;8.55;;;21.80;96.60;;;21.10;36.35;98452.88;5092377;28;20040;-73
2023/03/04 05:11:18;;;;;;;12.45;8.25;;;21.90;96.70;;;21.11;36.22;98443.44;5087100;28;20035;-73
2023/03/04 05:13:44;;;;;;;12.02;7.80;;;21.80;96.80;;;21.09;36.13;98442.97;5066432;28;20040;-73
2023/03/04 05:16:12;;;;;;;12.32;8.02;;;21.80;96.80;;;21.09;36.26;98454.00;5068805;28;20414;-73
2023/03/04 05:18:38;;;;;;;12.52;8.50;;;21.80;96.70;;;21.10;36.24;98450.91;5080930;28;20035;-72
2023/03/04 05:21:04;;;;;;;11.00;8.35;;;21.90;96.80;;;21.10;36.50;98444.59;5070270;28;20414;-73
2023/03/04 05:23:37;;;;;;;13.70;9.23;;;21.80;96.60;;;21.08;36.16;98441.38;5080420;28;20044;-74
2023/03/04 05:26:04;;;;;;;12.70;8.43;;;21.90;96.70;;;21.07;36.32;98434.28;5051863;28;20089;-73
2023/03/04 05:28:30;;;;;;;11.15;8.25;;;21.80;96.50;;;21.07;36.48;98442.56;5065252;28;20036;-73
2023/03/04 05:30:56;;;;;;;13.75;8.70;;;21.80;96.60;;;21.05;36.06;98450.38;5082628;28;20032;-73
2023/03/04 05:33:22;;;;;;;11.40;8.48;;;21.80;96.70;;;21.05;36.28;98447.63;5080370;28;20062;-73
2023/03/04 05:35:49;;;;;;;14.48;9.57;;;21.80;96.70;;;21.05;36.21;98453.91;5080292;28;20044;-73
2023/03/04 05:38:17;;;;;;;13.35;8.45;;;21.80;96.70;;;21.03;36.36;98434.97;5080525;28;20063;-73
2023/03/04 05:40:44;;;;;;;13.15;8.90;;;21.80;96.80;;;21.00;36.28;98440.38;5089374;28;20047;-73
2023/03/04 05:43:10;;;;;;;11.60;7.60;;;21.80;96.80;;;21.04;36.46;98435.78;5068375;28;20096;-73
2023/03/04 05:45:37;;;;;;;11.65;8.25;;;21.80;96.80;;;21.03;36.52;98440.47;5099107;28;20664;-73
2023/03/04 05:48:04;;;;;;;11.07;9.27;;;21.80;96.60;;;21.03;36.42;98429.44;5094838;28;20040;-73
2023/03/04 05:50:30;;;;;;;13.05;8.85;;;21.80;96.70;;;21.01;36.55;98426.25;5102757;28;20378;-73
2023/03/04 05:52:56;;;;;;;12.20;8.65;;;21.80;96.70;;;21.05;36.36;98428.31;5075041;28;20036;-73
2023/03/04 05:55:22;;;;;;;12.18;8.35;;;21.80;96.70;;;21.03;36.41;98434.16;5087431;28;20042;-74
2023/03/04 05:57:48;;;;;;;11.93;8.85;;;21.80;96.90;;;21.01;36.60;98425.44;5073947;28;20039;-73
2023/03/04 06:00:15;;;;;;;9.25;7.35;;;21.80;96.80;;;20.97;36.48;98425.34;5086013;28;20040;-73
2023/03/04 06:02:41;;;;;;;11.77;7.95;;;21.80;96.90;;;20.98;36.50;98426.16;5086476;28;20456;-73
2023/03/04 06:05:08;;;;;;;11.00;7.78;;;21.80;96.80;;;21.01;36.57;98430.94;5102370;28;20559;-73
2023/03/04 06:07:34;;;;;;;12.30;8.70;;;21.80;96.70;;;20.98;36.61;98432.47;5071395;28;20574;-73
2023/03/04 06:10:01;;;;;;;10.80;7.30;;;21.80;96.80;;;20.94;36.51;98428.00;5085233;28;20391;-72
2023/03/04 06:12:27;;;;;;;12.05;8.20;;;21.70;96.90;;;21.00;36.22;98435.66;5085872;28;20036;-73
2023/03/04 06:14:54;;;;;;;13.73;8.10;;;21.80;97.00;;;20.97;36.54;98430.06;5081703;28;20040;-73
2023/03/04 06:17:20;;;;;;;12.40;9.00;;;21.70;97.00;;;20.96;36.68;98434.78;5082159;28;20051;-73
2023/03/04 06:19:46;;;;;;;10.90;8.40;;;21.70;97.00;;;20.92;36.24;98436.63;5076859;28;20046;-73
2023/03/04 06:22:12;;;;;;;11.00;7.65;;;21.70;96.90;;;20.96;36.48;98433.97;5069149;28;20534;-72
2023/03/04 06:24:39;;;;;;;13.63;8.60;;;21.70;96.70;;;20.96;36.21;98440.31;5058034;28;20480;-72
2023/03/04 06:27:05;;;;;;;11.65;8.45;;;21.70;97.00;;;20.96;36.52;98440.31;5099483;28;20044;-73
2023/03/04 06:29:31;;;;;;;12.82;7.63;;;21.70;96.80;;;20.97;36.41;98441.91;5088520;28;20040;-73
2023/03/04 06:31:57;;;;;;;13.40;8.63;;;21.70;97.10;;;20.96;36.32;98440.31;5103244;28;20040;-73
2023/03/04 06:34:23;;;;;;;12.70;8.13;;;21.70;96.80;;;20.94;36.39;98439.84;5086068;28;20383;-73
2023/03/04 06:36:52;;;;;;;11.68;8.38;;;21.70;96.90;;;20.92;36.32;98436.63;5080767;28;20044;-72
2023/03/04 06:39:18;;;;;;;10.95;8.25;;;21.70;96.80;;;20.92;36.40;98433.88;5086631;28;20043;-73
2023/03/04 06:41:44;;;;;;;10.60;8.23;;;21.60;97.10;;;20.91;36.37;98428.69;5099729;28;20062;-73
2023/03/04 06:44:11;;;;;;;9.40;7.82;;;21.70;97.00;;;20.95;36.27;98435.94;5072652;28;20044;-73
2023/03/04 06:46:37;;;;;;;9.98;7.45;;;21.70;97.10;;;20.94;36.46;98436.25;5090202;28;20040;-73
2023/03/04 06:49:03;;;;;;;10.43;7.93;;;21.60;96.90;;;20.95;36.37;98427.66;5090426;28;20040;-73
2023/03/04 06:51:29;;;;;;;12.77;8.25;;;21.60;96.80;;;20.90;36.28;98438.94;5102238;28;20040;-73
2023/03/04 06:53:55;;;;;;;10.90;8.05;;;21.60;97.40;;;20.91;36.65;98443.28;5091856;28;20554;-73
2023/03/04 06:56:21;;;;;;;9.88;7.55;;;21.60;96.90;;;20.89;36.40;98442.84;5100770;28;20071;-73
2023/03/04 06:58:48;;;;;;;12.27;8.77;;;21.60;97.20;;;20.89;36.16;98439.28;5087467;28;20036;-72
2023/03/04 07:01:19;;;;;;;10.30;7.65;;;21.60;97.50;;;20.89;36.48;98448.38;5104893;28;20180;-73
2023/03/04 07:03:46;;;;;;;13.90;9.82;;;21.70;97.00;;;20.93;36.43;98446.50;5085917;28;20038;-73
2023/03/04 07:06:14;;;;;;;11.88;9.05;;;21.60;97.40;;;20.89;36.49;98445.59;5086025;28;20044;-72
2023/03/04 07:08:40;;;;;;;9.27;7.13;;;21.60;97.50;;;20.93;36.21;98448.44;5084231;28;20052;-73
2023/03/04 07:11:06;;;;;;;12.32;8.68;;;21.60;96.80;;;20.87;36.40;98439.63;5100896;28;20489;-73
2023/03/04 07:13:34;;;;;;;11.25;8.75;;;21.60;96.80;;;20.93;36.34;98452.00;5087602;28;20040;-73
2023/03/04 07:16:00;;;;;;;11.60;8.63;;;21.60;96.80;;;20.89;36.16;98451.13;5080911;28;20044;-73
2023/03/04 07:18:26;;;;;;;8.55;7.55;;;21.60;97.00;;;20.84;36.35;98454.13;5089004;28;20369;-72
2023/03/04 07:20:52;;;;;;;13.48;8.35;;;21.60;96.90;;;20.88;36.54;98451.47;5087242;28;20043;-73
2023/03/04 07:23:19;;;;;;;10.25;7.35;;;21.60;97.10;;;20.87;36.40;98453.41;5097033;28;20073;-73
2023/03/04 07:25:45;;;;;;;11.07;8.00;;;21.60;97.70;;;20.86;36.39;98446.28;5050661;28;20090;-74
2023/03/04 07:28:11;;;;;;;10.27;8.52;;;21.50;96.90;;;20.93;36.44;98467.75;5052391;28;20052;-73
2023/03/04 07:30:37;;;;;;;11.73;7.60;;;21.60;96.80;;;20.86;36.58;98465.59;5096926;28;20039;-72
2023/03/04 07:33:03;;;;;;;12.65;8.13;;;21.60;96.80;;;20.84;36.28;98465.16;5086504;28;20104;-73
2023/03/04 07:35:30;;;;;;;10.85;8.80;;;21.60;96.70;;;20.86;36.43;98468.34;5073770;28;20128;-73
2023/03/04 07:37:56;;;;;;;10.48;8.32;;;21.50;96.80;;;20.86;36.14;98468.34;5086926;28;20410;-73
2023/03/04 07:40:22;;;;;;;13.25;9.40;;;21.50;96.70;;;20.85;36.30;98472.25;5070654;28;20040;-72
2023/03/04 07:42:52;;;;;;;12.77;8.55;;;21.50;96.70;;;20.86;36.18;98468.34;5097733;28;20046;-73
2023/03/04 07:45:18;;;;;;;11.80;8.48;;;21.50;96.60;;;20.81;36.15;98472.16;5082959;28;20031;-72
2023/03/04 07:47:46;;;;;;;12.88;8.65;;;21.50;96.70;;;20.81;36.30;98465.84;5086624;28;20047;-72
2023/03/04 07:50:12;;;;;;;10.35;7.75;;;21.50;96.80;;;20.83;36.37;98460.78;5088467;28;20490;-73
2023/03/04 07:52:43;;;;;;;14.55;8.38;;;21.50;96.90;;;20.87;36.37;98469.16;5084401;28;20039;-72
2023/03/04 07:55:10;;;;;;;12.67;8.30;;;21.50;96.80;;;20.84;36.38;98470.66;5094561;28;20047;-72
2023/03/04 07:57:40;;;;;;;10.95;8.48;;;21.50;96.80;;;20.87;36.50;98463.66;5075446;28;20094;-72
2023/03/04 08:00:08;;;;;;;14.47;9.00;;;21.60;97.00;;;20.87;36.45;98469.97;5097713;28;20055;-72
2023/03/04 08:02:34;;;;;;;14.43;9.45;;;21.50;96.90;;;20.87;36.52;98469.16;5082539;28;20467;-72
2023/03/04 08:05:00;;;;;;;12.05;8.73;;;21.60;97.00;;;20.86;36.42;98465.59;5082247;28;20046;-72
2023/03/04 08:07:26;;;;;;;11.35;8.60;;;21.50;96.80;;;20.82;36.38;98475.72;5096639;28;20418;-72
2023/03/04 08:09:52;;;;;;;11.77;9.10;;;21.50;97.10;;;20.83;36.34;98474.56;5082438;28;20040;-72
2023/03/04 08:12:19;;;;;;;10.50;7.88;;;21.50;97.00;;;20.85;36.43;98493.53;5099200;28;20044;-72
2023/03/04 08:14:47;;;;;;;13.38;8.85;;;21.50;97.10;;;20.80;36.50;98484.31;5094123;28;20061;-72
2023/03/04 08:17:14;;;;;;;11.65;7.90;;;21.50;96.80;;;20.83;36.26;98484.78;5079784;28;20040;-72
2023/03/04 08:19:40;;;;;;;11.05;8.73;;;21.50;97.10;;;20.81;36.29;98490.63;5094796;28;20036;-72
2023/03/04 08:22:06;;;;;;;11.98;8.60;;;21.50;97.10;;;20.82;36.36;98484.00;5082913;28;20044;-72
2023/03/04 08:24:32;;;;;;;11.45;7.82;;;21.50;97.00;;;20.79;36.04;98484.69;5088960;28;20124;-72
2023/03/04 08:26:59;;;;;;;14.07;8.70;;;21.50;96.90;;;20.83;36.19;98488.34;5097373;28;20537;-72
2023/03/04 08:29:25;;;;;;;12.63;8.32;;;21.50;97.10;;;20.80;35.97;98486.28;5073715;28;20036;-72
2023/03/04 08:31:53;;;;;;;9.93;8.25;;;21.50;97.10;;;20.76;36.14;98488.13;5094079;28;20066;-72
2023/03/04 08:34:20;;;;;;;11.15;8.45;;;21.40;97.00;;;20.75;36.08;98489.28;5097440;28;20054;-72
2023/03/04 08:36:46;;;;;;;12.27;8.13;;;21.50;97.10;;;20.80;36.11;98483.53;5064669;28;20088;-72
2023/03/04 08:39:14;;;;;;;12.68;9.27;;;;;;;20.84;35.83;98484.44;5078969;28;20036;-70
2023/03/04 08:41:42;;;;;;;11.82;7.70;;;;;;;20.81;36.29;98485.13;5094479;28;20047;-70
2023/03/04 08:44:12;;;;;;;13.35;8.57;;;;;;;20.91;36.02;98483.84;5097340;28;20400;-69
2023/03/04 08:46:40;;;;;;;18.27;9.82;;;;;;;20.87;36.01;98481.00;5096778;28;20421;-69
2023/03/04 08:49:09;;;;;;;10.20;7.43;;;;;;;20.88;36.07;98479.03;5098918;28;20481;-68
2023/03/04 08:51:36;;;;;;;12.75;9.20;;;;;;;20.88;36.21;98490.06;5082811;28;20100;-69
2023/03/04 08:54:07;;;;;;;15.40;8.90;;;;;;;20.80;36.31;98487.09;5091894;28;20354;-69
2023/03/04 08:56:35;;;;;;;15.68;8.10;;;;;;;20.85;36.34;98485.25;5101692;27;20043;-69
2023/03/04 08:59:02;;;;;;;12.13;7.47;;;;;;;20.85;36.34;98486.03;5098195;28;20047;-69
2023/03/04 09:01:30;;;;;;;14.45;9.23;;;;;;;20.86;36.40;98482.13;5094548;28;20042;-69
2023/03/04 09:03:56;;;;;;;12.93;9.27;;;;;;;20.90;36.61;98480.28;5094902;28;20372;-68
2023/03/04 09:06:23;;;;;;;12.35;8.13;;;;;;;20.86;36.61;98487.63;5086478;28;20059;-68
2023/03/04 09:08:49;;;;;;;12.23;8.88;;;;;;;20.89;36.54;98483.38;5095768;28;20517;-68
2023/03/04 09:11:18;;;;;;;20.75;8.23;;;;;;;20.87;36.62;98486.50;5093884;28;20043;-68
2023/03/04 09:13:45;;;;;;;13.55;8.40;;;;;;;20.83;36.49;98480.06;5092088;28;20490;-68
2023/03/04 09:16:12;;;;;;;13.32;8.10;;;;;;;20.84;36.32;98487.22;5100404;28;20048;-68
2023/03/04 09:18:39;;;;;;;14.88;7.82;;;;;;;20.99;36.46;98485.66;5092982;28;20074;-68
2023/03/04 09:21:07;;;;;;;15.85;8.50;;;;;;;20.93;36.65;98495.31;5087647;28;20499;-68
2023/03/04 09:23:33;;;;;;;14.05;7.72;;;;;;;20.85;36.57;98497.06;5090718;28;20047;-68
2023/03/04 09:26:00;;;;;;;17.30;9.02;;;;;;;20.86;36.75;98497.88;5089315;28;20056;-68
2023/03/04 09:28:26;;;;;;;15.48;8.90;;;;;;;20.86;36.68;98479.38;5090741;28;20051;-68
2023/03/04 09:30:53;;;;;;;14.55;7.93;;;;;;;20.87;36.49;98492.00;5090371;28;20044;-69
2023/03/04 09:33:19;;;;;;;18.42;10.02;;;;;;;20.86;36.58;98493.16;5094743;28;20539;-68
2023/03/04 09:35:47;;;;;;;12.88;8.40;;;;;;;20.84;36.71;98481.69;5091924;28;20056;-68
2023/03/04 09:38:13;;;;;;;23.63;9.00;;;;;;;20.86;36.74;98478.56;5096411;28;20071;-68
2023/03/04 09:40:47;;;;;;;20.23;8.40;;;;;;;20.86;36.49;98478.56;5095383;28;20039;-68
2023/03/04 09:43:26;;;;;;;14.85;8.18;;;;;;;20.82;36.67;98478.47;5080513;28;20044;-68
2023/03/04 09:45:56;;;;;;;16.33;7.93;;;;;;;20.81;36.79;98477.69;5083953;28;20061;-68
2023/03/04 09:48:24;;;;;;;11.30;8.23;;;;;;;20.83;36.71;98471.81;5075906;28;20051;-68
2023/03/04 09:51:16;;;;;;;14.98;8.95;;;;;;;20.84;36.73;98462.41;5091229;28;20040;-67
2023/03/04 09:54:07;;;;;;;13.93;9.23;;;;;;;20.83;36.54;98468.25;5095607;28;20507;-67
2023/03/04 09:56:38;;;;;;;17.67;8.80;;;;;;;20.89;36.87;98470.41;5096852;28;20426;-68
2023/03/04 09:59:22;;;;;;;20.45;10.80;;;;;;;20.93;36.90;98465.78;5091498;28;20683;-69
2023/03/04 10:01:56;;;;;;;18.20;8.68;;;;;;;20.95;36.75;98470.97;5092385;28;20204;-69
2023/03/04 10:04:40;;;;;;;19.85;9.20;;;;;;;20.99;36.73;98466.38;5083664;28;20556;-69
2023/03/04 10:07:16;;;;;;;15.23;8.65;;;;;;;21.01;36.79;98470.38;5093714;28;20443;-69
2023/03/04 10:09:52;;;;;;;21.25;9.35;;;;;;;21.05;36.61;98467.72;5084030;28;20618;-69
2023/03/04 10:12:21;;;;;;;24.05;9.38;;;;;;;21.13;36.55;98463.19;5093725;28;20044;-69
2023/03/04 10:14:50;;;;;;;14.82;8.82;;;;;;;21.11;36.82;98454.47;5079372;28;20036;-69
2023/03/04 10:17:33;;;;;;;18.85;8.82;;;;;;;21.04;36.96;98455.09;5095314;28;20040;-69
2023/03/04 10:20:19;;;;;;;18.33;9.15;;;;;;;21.08;36.79;98444.16;5091746;28;20106;-69
2023/03/04 10:22:48;;;;;;;26.20;9.05;;;;;;;21.12;36.79;98454.13;5092997;28;20035;-69
2023/03/04 10:25:32;;;;;;;17.98;9.93;;;;;;;21.15;36.89;98452.63;5096511;28;20097;-69
2023/03/04 10:28:01;;;;;;;26.05;11.00;;;;;;;21.21;37.10;98443.72;5091519;28;20066;-69